sensor_id;sensor_type;location;lat;lon;timestamp;pressure;altitude;pressure_sealevel;temperature;humidity
34961;BME280;30789;52.030;7.110;2023-05-20T00:00:19;101636.75;;;12.63;61.37
34961;BME280;30789;52.030;7.110;2023-05-20T00:02:45;101639.09;;;12.61;61.90
34961;BME280;30789;52.030;7.110;2023-05-20T00:05:12;101635.97;;;12.63;61.26
34961;BME280;30789;52.030;7.110;2023-05-20T00:07:38;101626.78;;;12.55;61.67
34961;BME280;30789;52.030;7.110;2023-05-20T00:10:05;101634.59;;;12.50;61.96
34961;BME280;30789;52.030;7.110;2023-05-20T00:12:32;101627.91;;;12.51;62.41
34961;BME280;30789;52.030;7.110;2023-05-20T00:15:01;101633.06;;;12.52;61.86
34961;BME280;30789;52.030;7.110;2023-05-20T00:17:27;101630.63;;;12.47;62.97
34961;BME280;30789;52.030;7.110;2023-05-20T00:19:53;101630.25;;;12.49;63.08
34961;BME280;30789;52.030;7.110;2023-05-20T00:22:20;101632.56;;;12.47;62.37
34961;BME280;30789;52.030;7.110;2023-05-20T00:24:47;101626.97;;;12.43;62.49
34961;BME280;30789;52.030;7.110;2023-05-20T00:27:13;101625.78;;;12.41;62.68
34961;BME280;30789;52.030;7.110;2023-05-20T00:29:40;101626.47;;;12.34;63.34
34961;BME280;30789;52.030;7.110;2023-05-20T00:32:08;101630.03;;;12.35;63.26
34961;BME280;30789;52.030;7.110;2023-05-20T00:34:34;101635.47;;;12.28;63.91
34961;BME280;30789;52.030;7.110;2023-05-20T00:37:01;101638.63;;;12.30;63.65
34961;BME280;30789;52.030;7.110;2023-05-20T00:39:27;101635.84;;;12.26;63.83
34961;BME280;30789;52.030;7.110;2023-05-20T00:41:54;101634.22;;;12.25;64.16
34961;BME280;30789;52.030;7.110;2023-05-20T00:44:24;101634.59;;;12.24;64.17
34961;BME280;30789;52.030;7.110;2023-05-20T00:46:51;101627.50;;;12.23;64.17
34961;BME280;30789;52.030;7.110;2023-05-20T00:49:19;101629.78;;;12.17;64.99
34961;BME280;30789;52.030;7.110;2023-05-20T00:51:47;101626.22;;;12.17;64.60
34961;BME280;30789;52.030;7.110;2023-05-20T00:54:13;101628.19;;;12.16;64.61
34961;BME280;30789;52.030;7.110;2023-05-20T00:56:40;101621.06;;;12.15;64.57
34961;BME280;30789;52.030;7.110;2023-05-20T00:59:07;101620.56;;;12.09;65.28
34961;BME280;30789;52.030;7.110;2023-05-20T01:01:34;101620.16;;;12.07;64.98
34961;BME280;30789;52.030;7.110;2023-05-20T01:04:01;101628.41;;;12.04;65.13
34961;BME280;30789;52.030;7.110;2023-05-20T01:06:29;101620.41;;;11.99;65.50
34961;BME280;30789;52.030;7.110;2023-05-20T01:08:57;101620.75;;;11.94;66.13
34961;BME280;30789;52.030;7.110;2023-05-20T01:11:26;101625.53;;;11.97;65.96
34961;BME280;30789;52.030;7.110;2023-05-20T01:13:56;101619.63;;;11.98;66.17
34961;BME280;30789;52.030;7.110;2023-05-20T01:16:23;101622.03;;;12.00;66.16
34961;BME280;30789;52.030;7.110;2023-05-20T01:18:54;101622.72;;;11.93;66.65
34961;BME280;30789;52.030;7.110;2023-05-20T01:21:22;101626.28;;;11.94;66.52
34961;BME280;30789;52.030;7.110;2023-05-20T01:23:49;101625.84;;;11.92;66.65
34961;BME280;30789;52.030;7.110;2023-05-20T01:26:16;101631.84;;;11.97;66.54
34961;BME280;30789;52.030;7.110;2023-05-20T01:28:43;101630.19;;;11.93;66.65
34961;BME280;30789;52.030;7.110;2023-05-20T01:31:14;101623.53;;;11.94;66.68
34961;BME280;30789;52.030;7.110;2023-05-20T01:33:43;101625.09;;;11.95;66.68
34961;BME280;30789;52.030;7.110;2023-05-20T01:36:11;101625.03;;;11.91;67.01
34961;BME280;30789;52.030;7.110;2023-05-20T01:38:38;101617.75;;;11.80;67.83
34961;BME280;30789;52.030;7.110;2023-05-20T01:41:08;101629.22;;;11.82;67.99
34961;BME280;30789;52.030;7.110;2023-05-20T01:43:35;101623.28;;;11.80;67.49
34961;BME280;30789;52.030;7.110;2023-05-20T01:46:04;101626.09;;;11.83;67.53
34961;BME280;30789;52.030;7.110;2023-05-20T01:48:31;101621.56;;;11.72;68.34
34961;BME280;30789;52.030;7.110;2023-05-20T01:50:57;101623.53;;;11.71;68.21
34961;BME280;30789;52.030;7.110;2023-05-20T01:53:24;101620.72;;;11.68;68.65
34961;BME280;30789;52.030;7.110;2023-05-20T01:55:50;101623.84;;;11.66;68.81
34961;BME280;30789;52.030;7.110;2023-05-20T01:58:18;101619.09;;;11.67;69.12
34961;BME280;30789;52.030;7.110;2023-05-20T02:00:44;101613.84;;;11.62;69.28
34961;BME280;30789;52.030;7.110;2023-05-20T02:03:11;101617.78;;;11.61;69.42
34961;BME280;30789;52.030;7.110;2023-05-20T02:05:37;101615.94;;;11.65;68.87
34961;BME280;30789;52.030;7.110;2023-05-20T02:08:04;101613.84;;;11.62;69.03
34961;BME280;30789;52.030;7.110;2023-05-20T02:10:31;101616.63;;;11.62;69.11
34961;BME280;30789;52.030;7.110;2023-05-20T02:12:57;101614.56;;;11.55;69.39
34961;BME280;30789;52.030;7.110;2023-05-20T02:15:25;101616.13;;;11.56;69.65
34961;BME280;30789;52.030;7.110;2023-05-20T02:17:51;101613.31;;;11.53;69.38
34961;BME280;30789;52.030;7.110;2023-05-20T02:20:18;101614.47;;;11.52;69.62
34961;BME280;30789;52.030;7.110;2023-05-20T02:22:45;101608.59;;;11.53;69.48
34961;BME280;30789;52.030;7.110;2023-05-20T02:25:11;101613.31;;;11.53;69.75
34961;BME280;30789;52.030;7.110;2023-05-20T02:27:38;101600.63;;;11.48;70.40
34961;BME280;30789;52.030;7.110;2023-05-20T02:30:06;101599.69;;;11.41;70.22
34961;BME280;30789;52.030;7.110;2023-05-20T02:32:34;101602.91;;;11.43;70.33
34961;BME280;30789;52.030;7.110;2023-05-20T02:35:01;101604.00;;;11.38;70.63
34961;BME280;30789;52.030;7.110;2023-05-20T02:37:27;101597.25;;;11.36;70.25
34961;BME280;30789;52.030;7.110;2023-05-20T02:39:54;101588.03;;;11.28;70.73
34961;BME280;30789;52.030;7.110;2023-05-20T02:42:20;101593.56;;;11.28;71.09
34961;BME280;30789;52.030;7.110;2023-05-20T02:44:47;101588.72;;;11.22;71.18
34961;BME280;30789;52.030;7.110;2023-05-20T02:47:13;101585.53;;;11.20;71.20
34961;BME280;30789;52.030;7.110;2023-05-20T02:49:41;101587.84;;;11.18;71.19
34961;BME280;30789;52.030;7.110;2023-05-20T02:52:08;101593.72;;;11.16;71.31
34961;BME280;30789;52.030;7.110;2023-05-20T02:54:34;101591.28;;;11.11;71.53
34961;BME280;30789;52.030;7.110;2023-05-20T02:57:01;101599.56;;;11.11;71.33
34961;BME280;30789;52.030;7.110;2023-05-20T02:59:27;101594.78;;;11.08;71.56
34961;BME280;30789;52.030;7.110;2023-05-20T03:01:54;101593.41;;;10.99;71.80
34961;BME280;30789;52.030;7.110;2023-05-20T03:04:20;101591.38;;;10.96;71.93
34961;BME280;30789;52.030;7.110;2023-05-20T03:06:51;101596.19;;;10.99;72.43
34961;BME280;30789;52.030;7.110;2023-05-20T03:09:18;101582.22;;;10.92;72.68
34961;BME280;30789;52.030;7.110;2023-05-20T03:11:44;101585.34;;;10.90;72.53
34961;BME280;30789;52.030;7.110;2023-05-20T03:14:11;101583.84;;;10.93;72.51
34961;BME280;30789;52.030;7.110;2023-05-20T03:16:39;101585.44;;;10.94;72.65
34961;BME280;30789;52.030;7.110;2023-05-20T03:19:05;101583.41;;;10.91;72.76
34961;BME280;30789;52.030;7.110;2023-05-20T03:21:32;101589.78;;;10.95;72.50
34961;BME280;30789;52.030;7.110;2023-05-20T03:24:00;101583.91;;;10.96;72.55
34961;BME280;30789;52.030;7.110;2023-05-20T03:26:26;101587.81;;;10.95;72.50
34961;BME280;30789;52.030;7.110;2023-05-20T03:28:53;101591.75;;;10.94;72.60
34961;BME280;30789;52.030;7.110;2023-05-20T03:31:19;101598.13;;;10.98;72.67
34961;BME280;30789;52.030;7.110;2023-05-20T03:33:45;101600.03;;;10.94;72.88
34961;BME280;30789;52.030;7.110;2023-05-20T03:36:12;101601.25;;;10.97;72.61
34961;BME280;30789;52.030;7.110;2023-05-20T03:38:38;101599.59;;;10.92;72.53
34961;BME280;30789;52.030;7.110;2023-05-20T03:41:06;101605.47;;;10.91;72.62
34961;BME280;30789;52.030;7.110;2023-05-20T03:43:33;101593.59;;;10.87;73.26
34961;BME280;30789;52.030;7.110;2023-05-20T03:46:00;101600.25;;;10.86;73.27
34961;BME280;30789;52.030;7.110;2023-05-20T03:48:26;101600.25;;;10.86;73.30
34961;BME280;30789;52.030;7.110;2023-05-20T03:50:53;101594.00;;;10.89;72.82
34961;BME280;30789;52.030;7.110;2023-05-20T03:53:19;101592.53;;;10.95;72.57
34961;BME280;30789;52.030;7.110;2023-05-20T03:55:46;101600.31;;;10.89;72.90
34961;BME280;30789;52.030;7.110;2023-05-20T03:58:14;101590.94;;;10.94;72.83
34961;BME280;30789;52.030;7.110;2023-05-20T04:00:41;101592.91;;;10.93;72.95
34961;BME280;30789;52.030;7.110;2023-05-20T04:03:07;101598.50;;;10.97;72.50
34961;BME280;30789;52.030;7.110;2023-05-20T04:05:34;101601.63;;;10.95;72.77
34961;BME280;30789;52.030;7.110;2023-05-20T04:08:01;101597.09;;;11.06;72.08
34961;BME280;30789;52.030;7.110;2023-05-20T04:10:29;101591.22;;;11.08;71.97
34961;BME280;30789;52.030;7.110;2023-05-20T04:12:56;101592.72;;;11.05;72.35
34961;BME280;30789;52.030;7.110;2023-05-20T04:15:24;101597.09;;;11.06;72.02
34961;BME280;30789;52.030;7.110;2023-05-20T04:17:50;101597.09;;;11.06;72.10
34961;BME280;30789;52.030;7.110;2023-05-20T04:20:17;101598.25;;;11.05;72.11
34961;BME280;30789;52.030;7.110;2023-05-20T04:22:44;101605.00;;;11.08;72.24
34961;BME280;30789;52.030;7.110;2023-05-20T04:25:11;101604.28;;;11.11;72.39
34961;BME280;30789;52.030;7.110;2023-05-20T04:27:38;101610.25;;;11.13;72.58
34961;BME280;30789;52.030;7.110;2023-05-20T04:30:05;101606.75;;;11.16;72.51
34961;BME280;30789;52.030;7.110;2023-05-20T04:32:33;101609.91;;;11.18;71.89
34961;BME280;30789;52.030;7.110;2023-05-20T04:35:00;101602.88;;;11.20;71.79
34961;BME280;30789;52.030;7.110;2023-05-20T04:37:27;101607.31;;;11.25;71.40
34961;BME280;30789;52.030;7.110;2023-05-20T04:39:53;101602.19;;;11.27;71.50
34961;BME280;30789;52.030;7.110;2023-05-20T04:42:20;101599.88;;;11.29;71.85
34961;BME280;30789;52.030;7.110;2023-05-20T04:44:47;101603.13;;;11.34;71.34
34961;BME280;30789;52.030;7.110;2023-05-20T04:47:14;101609.44;;;11.35;71.96
34961;BME280;30789;52.030;7.110;2023-05-20T04:49:42;101608.34;;;11.39;71.65
34961;BME280;30789;52.030;7.110;2023-05-20T04:52:09;101617.19;;;11.48;71.54
34961;BME280;30789;52.030;7.110;2023-05-20T04:54:36;101610.44;;;11.46;71.68
34961;BME280;30789;52.030;7.110;2023-05-20T04:57:04;101607.38;;;11.51;71.50
34961;BME280;30789;52.030;7.110;2023-05-20T04:59:31;101609.41;;;11.54;71.02
34961;BME280;30789;52.030;7.110;2023-05-20T05:01:57;101608.34;;;11.62;71.01
34961;BME280;30789;52.030;7.110;2023-05-20T05:04:24;101607.28;;;11.66;70.97
34961;BME280;30789;52.030;7.110;2023-05-20T05:06:52;101605.75;;;11.69;71.03
34961;BME280;30789;52.030;7.110;2023-05-20T05:09:18;101607.75;;;11.72;71.03
34961;BME280;30789;52.030;7.110;2023-05-20T05:11:45;101606.59;;;11.73;70.68
34961;BME280;30789;52.030;7.110;2023-05-20T05:14:11;101601.59;;;11.82;70.41
34961;BME280;30789;52.030;7.110;2023-05-20T05:16:38;101599.72;;;11.86;70.51
34961;BME280;30789;52.030;7.110;2023-05-20T05:19:04;101595.69;;;11.83;70.80
34961;BME280;30789;52.030;7.110;2023-05-20T05:21:31;101599.19;;;12.03;70.01
34961;BME280;30789;52.030;7.110;2023-05-20T05:23:59;101600.88;;;12.11;69.54
34961;BME280;30789;52.030;7.110;2023-05-20T05:26:26;101608.31;;;12.07;69.82
34961;BME280;30789;52.030;7.110;2023-05-20T05:28:53;101602.16;;;12.17;69.28
34961;BME280;30789;52.030;7.110;2023-05-20T05:31:20;101602.63;;;12.23;68.97
34961;BME280;30789;52.030;7.110;2023-05-20T05:33:46;101592.84;;;12.29;68.00
34961;BME280;30789;52.030;7.110;2023-05-20T05:36:13;101598.78;;;12.31;68.35
34961;BME280;30789;52.030;7.110;2023-05-20T05:38:39;101602.78;;;12.33;67.92
34961;BME280;30789;52.030;7.110;2023-05-20T05:41:07;101593.09;;;12.46;67.42
34961;BME280;30789;52.030;7.110;2023-05-20T05:43:34;101593.59;;;12.55;67.40
34961;BME280;30789;52.030;7.110;2023-05-20T05:46:00;101594.50;;;12.66;67.20
34961;BME280;30789;52.030;7.110;2023-05-20T05:48:27;101600.41;;;12.65;67.04
34961;BME280;30789;52.030;7.110;2023-05-20T05:50:53;101597.06;;;12.82;66.79
34961;BME280;30789;52.030;7.110;2023-05-20T05:53:20;101591.53;;;12.82;67.07
34961;BME280;30789;52.030;7.110;2023-05-20T05:55:46;101597.56;;;12.91;67.11
34961;BME280;30789;52.030;7.110;2023-05-20T05:58:14;101599.69;;;13.01;66.71
34961;BME280;30789;52.030;7.110;2023-05-20T06:00:41;101589.59;;;13.19;65.11
34961;BME280;30789;52.030;7.110;2023-05-20T06:03:07;101589.72;;;13.29;65.06
34961;BME280;30789;52.030;7.110;2023-05-20T06:05:34;101592.47;;;13.29;65.01
34961;BME280;30789;52.030;7.110;2023-05-20T06:08:00;101592.13;;;13.34;64.64
34961;BME280;30789;52.030;7.110;2023-05-20T06:10:27;101581.13;;;13.41;65.00
34961;BME280;30789;52.030;7.110;2023-05-20T06:12:53;101592.22;;;13.45;63.50
34961;BME280;30789;52.030;7.110;2023-05-20T06:15:21;101590.66;;;13.47;63.21
34961;BME280;30789;52.030;7.110;2023-05-20T06:17:47;101583.19;;;13.51;63.80
34961;BME280;30789;52.030;7.110;2023-05-20T06:20:14;101580.47;;;13.55;63.06
34961;BME280;30789;52.030;7.110;2023-05-20T06:22:40;101585.97;;;13.51;63.79
34961;BME280;30789;52.030;7.110;2023-05-20T06:25:08;101584.88;;;13.63;63.04
34961;BME280;30789;52.030;7.110;2023-05-20T06:27:35;101580.94;;;13.64;63.21
34961;BME280;30789;52.030;7.110;2023-05-20T06:30:02;101580.22;;;13.74;61.33
34961;BME280;30789;52.030;7.110;2023-05-20T06:32:29;101578.19;;;13.67;61.75
34961;BME280;30789;52.030;7.110;2023-05-20T06:34:56;101572.75;;;13.82;61.41
34961;BME280;30789;52.030;7.110;2023-05-20T06:37:23;101573.56;;;13.82;60.99
34961;BME280;30789;52.030;7.110;2023-05-20T06:39:49;101572.38;;;13.83;61.71
34961;BME280;30789;52.030;7.110;2023-05-20T06:42:18;101565.63;;;13.81;60.78
34961;BME280;30789;52.030;7.110;2023-05-20T06:44:44;101571.16;;;13.81;61.26
34961;BME280;30789;52.030;7.110;2023-05-20T06:47:13;101564.06;;;13.80;61.82
34961;BME280;30789;52.030;7.110;2023-05-20T06:49:41;101562.94;;;13.91;60.83
34961;BME280;30789;52.030;7.110;2023-05-20T06:52:08;101557.03;;;13.96;61.50
34961;BME280;30789;52.030;7.110;2023-05-20T06:54:34;101548.75;;;14.03;61.21
34961;BME280;30789;52.030;7.110;2023-05-20T06:57:04;101548.34;;;14.05;60.12
34961;BME280;30789;52.030;7.110;2023-05-20T06:59:31;101553.13;;;14.08;60.44
34961;BME280;30789;52.030;7.110;2023-05-20T07:01:57;101549.19;;;14.09;60.40
34961;BME280;30789;52.030;7.110;2023-05-20T07:04:24;101543.69;;;14.16;59.59
34961;BME280;30789;52.030;7.110;2023-05-20T07:06:52;101550.13;;;14.27;59.47
34961;BME280;30789;52.030;7.110;2023-05-20T07:09:18;101547.03;;;14.42;59.12
34961;BME280;30789;52.030;7.110;2023-05-20T07:11:45;101534.41;;;14.59;59.23
34961;BME280;30789;52.030;7.110;2023-05-20T07:14:11;101544.31;;;14.60;58.16
34961;BME280;30789;52.030;7.110;2023-05-20T07:16:38;101548.31;;;14.69;59.36
34961;BME280;30789;52.030;7.110;2023-05-20T07:19:05;101543.19;;;14.78;58.48
34961;BME280;30789;52.030;7.110;2023-05-20T07:21:31;101555.13;;;14.96;57.48
34961;BME280;30789;52.030;7.110;2023-05-20T07:23:59;101549.19;;;15.01;57.33
34961;BME280;30789;52.030;7.110;2023-05-20T07:26:25;101547.63;;;15.11;57.05
34961;BME280;30789;52.030;7.110;2023-05-20T07:28:52;101544.06;;;15.14;56.27
34961;BME280;30789;52.030;7.110;2023-05-20T07:31:18;101540.47;;;15.13;55.36
34961;BME280;30789;52.030;7.110;2023-05-20T07:33:45;101538.09;;;15.33;55.67
34961;BME280;30789;52.030;7.110;2023-05-20T07:36:11;101538.56;;;15.49;55.78
34961;BME280;30789;52.030;7.110;2023-05-20T07:38:38;101535.00;;;15.56;54.99
34961;BME280;30789;52.030;7.110;2023-05-20T07:41:06;101537.34;;;15.68;53.30
34961;BME280;30789;52.030;7.110;2023-05-20T07:43:33;101531.38;;;15.62;54.75
34961;BME280;30789;52.030;7.110;2023-05-20T07:45:59;101536.56;;;15.74;53.69
34961;BME280;30789;52.030;7.110;2023-05-20T07:48:26;101535.75;;;15.77;53.14
34961;BME280;30789;52.030;7.110;2023-05-20T07:50:52;101535.75;;;15.70;52.04
34961;BME280;30789;52.030;7.110;2023-05-20T07:53:21;101534.97;;;15.73;52.04
34961;BME280;30789;52.030;7.110;2023-05-20T07:55:47;101533.34;;;15.79;52.43
34961;BME280;30789;52.030;7.110;2023-05-20T07:58:15;101529.41;;;15.77;52.63
34961;BME280;30789;52.030;7.110;2023-05-20T08:00:42;101527.81;;;15.72;53.47
34961;BME280;30789;52.030;7.110;2023-05-20T08:03:09;101524.22;;;15.86;52.70
34961;BME280;30789;52.030;7.110;2023-05-20T08:05:36;101519.06;;;15.88;52.22
34961;BME280;30789;52.030;7.110;2023-05-20T08:08:03;101524.19;;;16.00;52.26
34961;BME280;30789;52.030;7.110;2023-05-20T08:10:31;101535.31;;;16.00;51.92
34961;BME280;30789;52.030;7.110;2023-05-20T08:12:57;101529.72;;;16.14;51.79
34961;BME280;30789;52.030;7.110;2023-05-20T08:15:25;101522.53;;;16.27;52.77
34961;BME280;30789;52.030;7.110;2023-05-20T08:17:51;101514.16;;;16.30;50.91
34961;BME280;30789;52.030;7.110;2023-05-20T08:20:18;101516.59;;;16.21;51.31
34961;BME280;30789;52.030;7.110;2023-05-20T08:22:45;101518.53;;;16.35;50.80
34961;BME280;30789;52.030;7.110;2023-05-20T08:25:11;101529.25;;;16.40;50.93
34961;BME280;30789;52.030;7.110;2023-05-20T08:27:38;101516.50;;;16.49;51.47
34961;BME280;30789;52.030;7.110;2023-05-20T08:30:06;101517.97;;;16.71;51.24
34961;BME280;30789;52.030;7.110;2023-05-20T08:32:35;101527.47;;;16.81;50.57
34961;BME280;30789;52.030;7.110;2023-05-20T08:35:02;101522.66;;;16.88;50.59
34961;BME280;30789;52.030;7.110;2023-05-20T08:37:28;101523.31;;;17.10;52.14
34961;BME280;30789;52.030;7.110;2023-05-20T08:39:55;101522.72;;;17.33;50.10
34961;BME280;30789;52.030;7.110;2023-05-20T08:42:22;101522.03;;;17.22;50.04
34961;BME280;30789;52.030;7.110;2023-05-20T08:44:50;101522.31;;;17.34;50.67
34961;BME280;30789;52.030;7.110;2023-05-20T08:47:16;101519.03;;;17.53;50.14
34961;BME280;30789;52.030;7.110;2023-05-20T08:49:44;101512.91;;;17.69;50.19
34961;BME280;30789;52.030;7.110;2023-05-20T08:52:11;101513.88;;;17.52;49.35
34961;BME280;30789;52.030;7.110;2023-05-20T08:54:42;101518.81;;;17.23;49.58
34961;BME280;30789;52.030;7.110;2023-05-20T08:57:10;101528.88;;;17.10;49.95
34961;BME280;30789;52.030;7.110;2023-05-20T08:59:39;101519.81;;;16.95;50.22
34961;BME280;30789;52.030;7.110;2023-05-20T09:02:06;101524.13;;;17.07;50.80
34961;BME280;30789;52.030;7.110;2023-05-20T09:04:33;101519.97;;;17.29;50.63
34961;BME280;30789;52.030;7.110;2023-05-20T09:07:02;101524.28;;;17.37;50.35
34961;BME280;30789;52.030;7.110;2023-05-20T09:09:29;101514.38;;;17.33;49.37
34961;BME280;30789;52.030;7.110;2023-05-20T09:11:55;101518.00;;;17.26;49.41
34961;BME280;30789;52.030;7.110;2023-05-20T09:14:22;101517.69;;;17.17;48.87
34961;BME280;30789;52.030;7.110;2023-05-20T09:16:51;101520.53;;;17.06;49.43
34961;BME280;30789;52.030;7.110;2023-05-20T09:19:19;101513.81;;;17.00;49.22
34961;BME280;30789;52.030;7.110;2023-05-20T09:21:46;101517.03;;;16.95;49.62
34961;BME280;30789;52.030;7.110;2023-05-20T09:24:13;101526.16;;;17.03;50.94
34961;BME280;30789;52.030;7.110;2023-05-20T09:26:40;101515.88;;;16.89;49.62
34961;BME280;30789;52.030;7.110;2023-05-20T09:29:07;101515.81;;;17.00;49.68
34961;BME280;30789;52.030;7.110;2023-05-20T09:31:34;101513.34;;;17.13;50.57
34961;BME280;30789;52.030;7.110;2023-05-20T09:34:02;101513.31;;;17.16;49.76
34961;BME280;30789;52.030;7.110;2023-05-20T09:36:30;101503.66;;;17.31;50.00
34961;BME280;30789;52.030;7.110;2023-05-20T09:39:01;101496.41;;;17.41;49.60
34961;BME280;30789;52.030;7.110;2023-05-20T09:41:33;101499.19;;;17.44;48.73
34961;BME280;30789;52.030;7.110;2023-05-20T09:44:01;101497.44;;;17.64;50.26
34961;BME280;30789;52.030;7.110;2023-05-20T09:46:28;101496.06;;;17.79;48.41
34961;BME280;30789;52.030;7.110;2023-05-20T09:48:54;101489.09;;;17.98;49.36
34961;BME280;30789;52.030;7.110;2023-05-20T09:51:22;101489.41;;;18.07;47.82
34961;BME280;30789;52.030;7.110;2023-05-20T09:53:49;101492.38;;;18.23;48.47
34961;BME280;30789;52.030;7.110;2023-05-20T09:56:17;101485.09;;;18.32;47.66
34961;BME280;30789;52.030;7.110;2023-05-20T09:58:48;101480.00;;;18.84;48.04
34961;BME280;30789;52.030;7.110;2023-05-20T10:01:15;101487.53;;;19.40;47.35
34961;BME280;30789;52.030;7.110;2023-05-20T10:03:43;101488.56;;;20.15;45.20
34961;BME280;30789;52.030;7.110;2023-05-20T10:06:19;101496.19;;;20.11;45.91
34961;BME280;30789;52.030;7.110;2023-05-20T10:09:04;101488.91;;;20.17;43.72
34961;BME280;30789;52.030;7.110;2023-05-20T10:11:39;101479.22;;;20.22;44.99
34961;BME280;30789;52.030;7.110;2023-05-20T10:14:27;101481.50;;;20.47;44.84
34961;BME280;30789;52.030;7.110;2023-05-20T10:17:06;101473.16;;;20.98;43.54
34961;BME280;30789;52.030;7.110;2023-05-20T10:19:35;101472.91;;;21.09;43.32
34961;BME280;30789;52.030;7.110;2023-05-20T10:22:03;101473.59;;;21.29;41.44
34961;BME280;30789;52.030;7.110;2023-05-20T10:24:31;101462.03;;;21.27;41.86
34961;BME280;30789;52.030;7.110;2023-05-20T10:27:00;101456.06;;;21.25;42.15
34961;BME280;30789;52.030;7.110;2023-05-20T10:29:29;101459.22;;;21.27;41.63
34961;BME280;30789;52.030;7.110;2023-05-20T10:32:07;101464.31;;;21.00;41.37
34961;BME280;30789;52.030;7.110;2023-05-20T10:34:44;101469.38;;;21.21;40.74
34961;BME280;30789;52.030;7.110;2023-05-20T10:37:21;101462.38;;;21.13;41.06
34961;BME280;30789;52.030;7.110;2023-05-20T10:39:48;101468.16;;;21.06;41.32
34961;BME280;30789;52.030;7.110;2023-05-20T10:42:15;101459.00;;;20.86;42.16
34961;BME280;30789;52.030;7.110;2023-05-20T10:44:43;101457.94;;;21.15;41.89
34961;BME280;30789;52.030;7.110;2023-05-20T10:47:10;101452.41;;;22.30;40.49
34961;BME280;30789;52.030;7.110;2023-05-20T10:49:40;101441.06;;;23.46;38.68
34961;BME280;30789;52.030;7.110;2023-05-20T10:52:07;101432.28;;;23.78;38.13
34961;BME280;30789;52.030;7.110;2023-05-20T10:54:36;101437.69;;;23.51;36.71
34961;BME280;30789;52.030;7.110;2023-05-20T10:57:05;101441.41;;;23.48;36.97
34961;BME280;30789;52.030;7.110;2023-05-20T10:59:33;101434.06;;;23.50;36.42
34961;BME280;30789;52.030;7.110;2023-05-20T11:02:01;101433.09;;;23.32;37.18
34961;BME280;30789;52.030;7.110;2023-05-20T11:04:28;101421.25;;;23.49;37.18
34961;BME280;30789;52.030;7.110;2023-05-20T11:06:55;101423.38;;;23.80;36.97
34961;BME280;30789;52.030;7.110;2023-05-20T11:09:23;101412.19;;;24.10;36.23
34961;BME280;30789;52.030;7.110;2023-05-20T11:11:55;101419.31;;;24.85;35.21
34961;BME280;30789;52.030;7.110;2023-05-20T11:14:21;101406.88;;;25.22;34.56
34961;BME280;30789;52.030;7.110;2023-05-20T11:16:51;101413.47;;;25.28;33.73
34961;BME280;30789;52.030;7.110;2023-05-20T11:19:23;101408.13;;;25.21;33.77
34961;BME280;30789;52.030;7.110;2023-05-20T11:21:51;101395.56;;;25.04;35.47
34961;BME280;30789;52.030;7.110;2023-05-20T11:24:23;101401.88;;;24.68;35.42
34961;BME280;30789;52.030;7.110;2023-05-20T11:26:51;101399.47;;;24.27;34.82
34961;BME280;30789;52.030;7.110;2023-05-20T11:29:18;101392.75;;;24.64;34.11
34961;BME280;30789;52.030;7.110;2023-05-20T11:31:47;101376.78;;;25.28;33.82
34961;BME280;30789;52.030;7.110;2023-05-20T11:34:15;101383.97;;;25.11;32.31
34961;BME280;30789;52.030;7.110;2023-05-20T11:36:43;101391.44;;;24.17;34.11
34961;BME280;30789;52.030;7.110;2023-05-20T11:39:10;101396.84;;;23.46;36.66
34961;BME280;30789;52.030;7.110;2023-05-20T11:41:37;101383.66;;;24.60;35.98
34961;BME280;30789;52.030;7.110;2023-05-20T11:44:08;101381.16;;;26.19;32.86
34961;BME280;30789;52.030;7.110;2023-05-20T11:46:40;101395.03;;;25.63;32.65
34961;BME280;30789;52.030;7.110;2023-05-20T11:49:06;101401.00;;;24.59;33.46
34961;BME280;30789;52.030;7.110;2023-05-20T11:51:33;101396.88;;;24.11;34.13
34961;BME280;30789;52.030;7.110;2023-05-20T11:54:02;101394.88;;;25.40;32.99
34961;BME280;30789;52.030;7.110;2023-05-20T11:56:29;101382.94;;;26.49;31.00
34961;BME280;30789;52.030;7.110;2023-05-20T11:58:56;101384.13;;;24.98;32.42
34961;BME280;30789;52.030;7.110;2023-05-20T12:01:23;101388.47;;;23.55;34.64
34961;BME280;30789;52.030;7.110;2023-05-20T12:03:50;101367.16;;;22.49;36.32
34961;BME280;30789;52.030;7.110;2023-05-20T12:06:16;101372.97;;;22.42;36.61
34961;BME280;30789;52.030;7.110;2023-05-20T12:08:43;101373.06;;;23.47;36.11
34961;BME280;30789;52.030;7.110;2023-05-20T12:11:12;101371.28;;;24.27;34.26
34961;BME280;30789;52.030;7.110;2023-05-20T12:13:39;101374.41;;;24.60;34.74
34961;BME280;30789;52.030;7.110;2023-05-20T12:16:05;101365.66;;;25.15;33.80
34961;BME280;30789;52.030;7.110;2023-05-20T12:18:32;101356.59;;;25.39;33.08
34961;BME280;30789;52.030;7.110;2023-05-20T12:20:59;101356.06;;;24.46;33.52
34961;BME280;30789;52.030;7.110;2023-05-20T12:23:25;101360.00;;;23.53;34.84
34961;BME280;30789;52.030;7.110;2023-05-20T12:25:54;101342.44;;;23.28;35.71
34961;BME280;30789;52.030;7.110;2023-05-20T12:28:22;101336.56;;;22.88;36.57
34961;BME280;30789;52.030;7.110;2023-05-20T12:30:49;101338.59;;;23.22;36.17
34961;BME280;30789;52.030;7.110;2023-05-20T12:33:16;101340.03;;;24.04;35.68
34961;BME280;30789;52.030;7.110;2023-05-20T12:35:42;101337.06;;;24.77;34.88
34961;BME280;30789;52.030;7.110;2023-05-20T12:38:10;101334.69;;;24.27;33.98
34961;BME280;30789;52.030;7.110;2023-05-20T12:40:36;101331.16;;;23.40;35.63
34961;BME280;30789;52.030;7.110;2023-05-20T12:43:03;101333.69;;;22.54;37.76
34961;BME280;30789;52.030;7.110;2023-05-20T12:45:32;101337.16;;;22.21;37.88
34961;BME280;30789;52.030;7.110;2023-05-20T12:47:59;101337.81;;;22.37;38.71
34961;BME280;30789;52.030;7.110;2023-05-20T12:50:26;101322.31;;;22.70;36.39